sensor_id;sensor_type;location;lat;lon;timestamp;P1;durP1;ratioP1;P2;durP2;ratioP2
3149;SDS011;32503;47.748;8.960;2023-03-12T00:01:53;8.67;;;6.90;;
3149;SDS011;32503;47.748;8.960;2023-03-12T00:04:20;12.27;;;8.27;;
3149;SDS011;32503;47.748;8.960;2023-03-12T00:06:47;11.33;;;8.13;;
3149;SDS011;32503;47.748;8.960;2023-03-12T00:09:14;10.80;;;8.17;;
3149;SDS011;32503;47.748;8.960;2023-03-12T00:11:41;14.00;;;9.07;;
3149;SDS011;32503;47.748;8.960;2023-03-12T00:14:08;12.97;;;8.47;;
3149;SDS011;32503;47.748;8.960;2023-03-12T00:16:37;11.70;;;8.33;;
3149;SDS011;32503;47.748;8.960;2023-03-12T00:19:04;14.17;;;9.33;;
3149;SDS011;32503;47.748;8.960;2023-03-12T00:21:31;10.37;;;7.77;;
3149;SDS011;32503;47.748;8.960;2023-03-12T00:23:58;12.23;;;8.60;;
3149;SDS011;32503;47.748;8.960;2023-03-12T00:26:25;16.27;;;8.73;;
3149;SDS011;32503;47.748;8.960;2023-03-12T00:28:52;12.10;;;8.30;;
3149;SDS011;32503;47.748;8.960;2023-03-12T00:31:20;10.57;;;7.70;;
3149;SDS011;32503;47.748;8.960;2023-03-12T00:33:52;16.83;;;8.67;;
3149;SDS011;32503;47.748;8.960;2023-03-12T00:36:21;13.17;;;9.53;;
3149;SDS011;32503;47.748;8.960;2023-03-12T00:38:51;11.87;;;7.97;;
3149;SDS011;32503;47.748;8.960;2023-03-12T00:41:18;14.17;;;9.10;;
3149;SDS011;32503;47.748;8.960;2023-03-12T00:43:46;14.20;;;9.70;;
3149;SDS011;32503;47.748;8.960;2023-03-12T00:46:14;10.10;;;8.03;;
3149;SDS011;32503;47.748;8.960;2023-03-12T00:48:42;14.83;;;8.93;;
3149;SDS011;32503;47.748;8.960;2023-03-12T00:51:11;12.33;;;7.50;;
3149;SDS011;32503;47.748;8.960;2023-03-12T00:53:38;11.47;;;8.47;;
3149;SDS011;32503;47.748;8.960;2023-03-12T00:56:06;11.10;;;7.97;;
3149;SDS011;32503;47.748;8.960;2023-03-12T00:58:33;16.50;;;9.50;;
3149;SDS011;32503;47.748;8.960;2023-03-12T01:01:02;16.30;;;9.23;;
3149;SDS011;32503;47.748;8.960;2023-03-12T01:03:30;12.30;;;8.27;;
3149;SDS011;32503;47.748;8.960;2023-03-12T01:05:57;12.40;;;8.73;;
3149;SDS011;32503;47.748;8.960;2023-03-12T01:08:26;15.63;;;8.20;;
3149;SDS011;32503;47.748;8.960;2023-03-12T01:10:53;13.10;;;8.60;;
3149;SDS011;32503;47.748;8.960;2023-03-12T01:13:21;14.27;;;8.83;;
3149;SDS011;32503;47.748;8.960;2023-03-12T01:15:48;13.83;;;9.13;;
3149;SDS011;32503;47.748;8.960;2023-03-12T01:18:15;15.60;;;9.33;;
3149;SDS011;32503;47.748;8.960;2023-03-12T01:20:42;14.87;;;9.77;;
3149;SDS011;32503;47.748;8.960;2023-03-12T01:23:09;13.63;;;8.30;;
3149;SDS011;32503;47.748;8.960;2023-03-12T01:25:37;10.67;;;9.00;;
3149;SDS011;32503;47.748;8.960;2023-03-12T01:28:06;13.30;;;8.43;;
3149;SDS011;32503;47.748;8.960;2023-03-12T01:30:33;13.83;;;8.20;;
3149;SDS011;32503;47.748;8.960;2023-03-12T01:33:00;14.57;;;8.47;;
3149;SDS011;32503;47.748;8.960;2023-03-12T01:35:27;18.00;;;10.47;;
3149;SDS011;32503;47.748;8.960;2023-03-12T01:37:54;13.83;;;8.93;;
3149;SDS011;32503;47.748;8.960;2023-03-12T01:40:22;14.33;;;8.60;;
3149;SDS011;32503;47.748;8.960;2023-03-12T01:42:54;12.10;;;9.00;;
3149;SDS011;32503;47.748;8.960;2023-03-12T01:48:29;18.00;;;10.20;;
3149;SDS011;32503;47.748;8.960;2023-03-12T01:51:02;14.03;;;9.50;;
3149;SDS011;32503;47.748;8.960;2023-03-12T01:53:31;17.50;;;9.50;;
3149;SDS011;32503;47.748;8.960;2023-03-12T01:55:59;13.43;;;9.07;;
3149;SDS011;32503;47.748;8.960;2023-03-12T01:58:28;18.40;;;11.07;;
3149;SDS011;32503;47.748;8.960;2023-03-12T02:00:58;17.70;;;9.87;;
3149;SDS011;32503;47.748;8.960;2023-03-12T02:03:25;16.63;;;9.93;;
3149;SDS011;32503;47.748;8.960;2023-03-12T02:05:54;17.80;;;11.50;;
3149;SDS011;32503;47.748;8.960;2023-03-12T02:08:27;17.47;;;10.07;;
3149;SDS011;32503;47.748;8.960;2023-03-12T02:10:55;14.33;;;9.50;;
3149;SDS011;32503;47.748;8.960;2023-03-12T02:13:22;14.30;;;9.57;;
3149;SDS011;32503;47.748;8.960;2023-03-12T02:15:50;14.00;;;9.40;;
3149;SDS011;32503;47.748;8.960;2023-03-12T02:18:18;15.90;;;9.33;;
3149;SDS011;32503;47.748;8.960;2023-03-12T02:20:47;11.13;;;7.90;;
3149;SDS011;32503;47.748;8.960;2023-03-12T02:23:25;14.93;;;9.20;;
3149;SDS011;32503;47.748;8.960;2023-03-12T02:25:58;15.17;;;10.27;;
3149;SDS011;32503;47.748;8.960;2023-03-12T02:28:27;16.90;;;9.83;;
3149;SDS011;32503;47.748;8.960;2023-03-12T02:30:56;18.23;;;9.77;;
3149;SDS011;32503;47.748;8.960;2023-03-12T02:33:27;13.90;;;9.80;;
3149;SDS011;32503;47.748;8.960;2023-03-12T02:35:54;19.43;;;11.37;;
3149;SDS011;32503;47.748;8.960;2023-03-12T02:41:12;10.87;;;8.50;;
3149;SDS011;32503;47.748;8.960;2023-03-12T02:43:44;12.53;;;8.07;;
3149;SDS011;32503;47.748;8.960;2023-03-12T02:46:14;13.20;;;7.73;;
3149;SDS011;32503;47.748;8.960;2023-03-12T02:48:41;10.20;;;7.47;;
3149;SDS011;32503;47.748;8.960;2023-03-12T02:51:09;7.90;;;6.77;;
3149;SDS011;32503;47.748;8.960;2023-03-12T02:53:36;10.43;;;6.60;;
3149;SDS011;32503;47.748;8.960;2023-03-12T02:56:03;8.47;;;6.90;;
3149;SDS011;32503;47.748;8.960;2023-03-12T02:58:32;12.07;;;7.97;;
3149;SDS011;32503;47.748;8.960;2023-03-12T03:01:00;11.53;;;7.57;;
3149;SDS011;32503;47.748;8.960;2023-03-12T03:03:27;13.00;;;7.67;;
3149;SDS011;32503;47.748;8.960;2023-03-12T03:05:54;9.17;;;6.90;;
3149;SDS011;32503;47.748;8.960;2023-03-12T03:08:21;9.97;;;6.60;;
3149;SDS011;32503;47.748;8.960;2023-03-12T03:10:49;10.37;;;7.00;;
3149;SDS011;32503;47.748;8.960;2023-03-12T03:13:17;7.80;;;6.43;;
3149;SDS011;32503;47.748;8.960;2023-03-12T03:15:45;10.63;;;6.77;;
3149;SDS011;32503;47.748;8.960;2023-03-12T03:18:12;9.40;;;7.30;;
3149;SDS011;32503;47.748;8.960;2023-03-12T03:20:39;11.10;;;7.63;;
3149;SDS011;32503;47.748;8.960;2023-03-12T03:23:09;10.60;;;6.50;;
3149;SDS011;32503;47.748;8.960;2023-03-12T03:25:36;9.73;;;7.00;;
3149;SDS011;32503;47.748;8.960;2023-03-12T03:28:03;7.43;;;6.70;;
3149;SDS011;32503;47.748;8.960;2023-03-12T03:30:30;9.30;;;6.60;;
3149;SDS011;32503;47.748;8.960;2023-03-12T03:32:59;8.67;;;5.83;;
3149;SDS011;32503;47.748;8.960;2023-03-12T03:35:26;9.40;;;5.83;;
3149;SDS011;32503;47.748;8.960;2023-03-12T03:37:53;9.20;;;6.20;;
3149;SDS011;32503;47.748;8.960;2023-03-12T03:40:19;5.77;;;5.13;;
3149;SDS011;32503;47.748;8.960;2023-03-12T03:42:46;13.73;;;5.30;;
3149;SDS011;32503;47.748;8.960;2023-03-12T03:45:13;7.60;;;5.73;;
3149;SDS011;32503;47.748;8.960;2023-03-12T03:47:41;6.93;;;5.50;;
3149;SDS011;32503;47.748;8.960;2023-03-12T03:50:10;8.63;;;5.53;;
3149;SDS011;32503;47.748;8.960;2023-03-12T03:52:37;7.03;;;4.93;;
3149;SDS011;32503;47.748;8.960;2023-03-12T03:55:05;5.40;;;4.90;;
3149;SDS011;32503;47.748;8.960;2023-03-12T03:57:32;5.57;;;5.07;;
3149;SDS011;32503;47.748;8.960;2023-03-12T03:59:59;7.10;;;4.40;;
3149;SDS011;32503;47.748;8.960;2023-03-12T04:02:26;6.60;;;5.40;;
3149;SDS011;32503;47.748;8.960;2023-03-12T04:04:55;5.57;;;4.70;;
3149;SDS011;32503;47.748;8.960;2023-03-12T04:07:24;4.10;;;3.53;;
3149;SDS011;32503;47.748;8.960;2023-03-12T04:09:52;6.53;;;5.40;;
3149;SDS011;32503;47.748;8.960;2023-03-12T04:12:19;4.93;;;4.30;;
3149;SDS011;32503;47.748;8.960;2023-03-12T04:14:49;4.70;;;4.20;;
3149;SDS011;32503;47.748;8.960;2023-03-12T04:17:17;5.10;;;4.33;;
3149;SDS011;32503;47.748;8.960;2023-03-12T04:19:44;3.93;;;3.63;;
3149;SDS011;32503;47.748;8.960;2023-03-12T04:22:12;5.00;;;4.50;;
3149;SDS011;32503;47.748;8.960;2023-03-12T04:24:40;5.80;;;4.90;;
3149;SDS011;32503;47.748;8.960;2023-03-12T04:27:08;4.60;;;4.20;;
3149;SDS011;32503;47.748;8.960;2023-03-12T04:29:35;5.70;;;4.50;;
3149;SDS011;32503;47.748;8.960;2023-03-12T04:32:03;4.80;;;3.93;;
3149;SDS011;32503;47.748;8.960;2023-03-12T04:34:31;5.20;;;4.17;;
3149;SDS011;32503;47.748;8.960;2023-03-12T04:36:59;6.90;;;4.47;;
3149;SDS011;32503;47.748;8.960;2023-03-12T04:39:26;4.33;;;3.93;;
3149;SDS011;32503;47.748;8.960;2023-03-12T04:41:55;7.40;;;5.27;;
3149;SDS011;32503;47.748;8.960;2023-03-12T04:44:22;4.43;;;4.03;;
3149;SDS011;32503;47.748;8.960;2023-03-12T04:46:49;5.30;;;4.20;;
3149;SDS011;32503;47.748;8.960;2023-03-12T04:49:16;4.63;;;4.23;;
3149;SDS011;32503;47.748;8.960;2023-03-12T04:51:43;4.10;;;3.77;;
3149;SDS011;32503;47.748;8.960;2023-03-12T04:54:10;6.63;;;5.40;;
3149;SDS011;32503;47.748;8.960;2023-03-12T04:56:37;5.10;;;4.13;;
3149;SDS011;32503;47.748;8.960;2023-03-12T04:59:06;5.63;;;4.77;;
3149;SDS011;32503;47.748;8.960;2023-03-12T05:01:34;5.13;;;4.20;;
3149;SDS011;32503;47.748;8.960;2023-03-12T05:04:02;5.53;;;4.30;;
3149;SDS011;32503;47.748;8.960;2023-03-12T05:06:30;7.20;;;4.30;;
3149;SDS011;32503;47.748;8.960;2023-03-12T05:08:58;6.00;;;4.70;;
3149;SDS011;32503;47.748;8.960;2023-03-12T05:11:26;4.00;;;3.57;;
3149;SDS011;32503;47.748;8.960;2023-03-12T05:13:53;5.70;;;4.07;;
3149;SDS011;32503;47.748;8.960;2023-03-12T05:16:21;7.87;;;5.77;;
3149;SDS011;32503;47.748;8.960;2023-03-12T05:18:48;4.67;;;3.97;;
3149;SDS011;32503;47.748;8.960;2023-03-12T05:21:16;4.07;;;3.77;;
3149;SDS011;32503;47.748;8.960;2023-03-12T05:23:45;7.47;;;4.30;;
3149;SDS011;32503;47.748;8.960;2023-03-12T05:26:16;6.60;;;6.03;;
3149;SDS011;32503;47.748;8.960;2023-03-12T05:28:46;5.73;;;5.20;;
3149;SDS011;32503;47.748;8.960;2023-03-12T05:31:13;8.77;;;6.47;;
3149;SDS011;32503;47.748;8.960;2023-03-12T05:33:42;6.10;;;5.60;;
3149;SDS011;32503;47.748;8.960;2023-03-12T05:36:10;6.50;;;5.43;;
3149;SDS011;32503;47.748;8.960;2023-03-12T05:38:39;5.37;;;4.80;;
3149;SDS011;32503;47.748;8.960;2023-03-12T05:41:07;6.23;;;4.60;;
3149;SDS011;32503;47.748;8.960;2023-03-12T05:43:35;5.07;;;4.67;;
3149;SDS011;32503;47.748;8.960;2023-03-12T05:46:03;4.70;;;4.40;;
3149;SDS011;32503;47.748;8.960;2023-03-12T05:48:30;8.03;;;4.10;;
3149;SDS011;32503;47.748;8.960;2023-03-12T05:50:59;6.20;;;5.17;;
3149;SDS011;32503;47.748;8.960;2023-03-12T05:53:26;7.13;;;5.00;;
3149;SDS011;32503;47.748;8.960;2023-03-12T05:55:53;5.10;;;4.23;;
3149;SDS011;32503;47.748;8.960;2023-03-12T05:58:20;5.23;;;4.50;;
3149;SDS011;32503;47.748;8.960;2023-03-12T06:00:47;5.10;;;4.60;;
3149;SDS011;32503;47.748;8.960;2023-03-12T06:03:14;8.83;;;5.43;;
3149;SDS011;32503;47.748;8.960;2023-03-12T06:05:42;7.70;;;6.40;;
3149;SDS011;32503;47.748;8.960;2023-03-12T06:08:11;7.57;;;5.70;;
3149;SDS011;32503;47.748;8.960;2023-03-12T06:10:39;9.60;;;6.80;;
3149;SDS011;32503;47.748;8.960;2023-03-12T06:13:06;13.10;;;8.63;;
3149;SDS011;32503;47.748;8.960;2023-03-12T06:15:34;16.37;;;8.77;;
3149;SDS011;32503;47.748;8.960;2023-03-12T06:18:01;11.37;;;8.40;;
3149;SDS011;32503;47.748;8.960;2023-03-12T06:20:29;13.27;;;9.40;;
3149;SDS011;32503;47.748;8.960;2023-03-12T06:22:56;10.70;;;8.77;;
3149;SDS011;32503;47.748;8.960;2023-03-12T06:25:24;8.23;;;6.23;;
3149;SDS011;32503;47.748;8.960;2023-03-12T06:27:51;7.90;;;5.40;;
3149;SDS011;32503;47.748;8.960;2023-03-12T06:30:18;6.23;;;5.73;;
3149;SDS011;32503;47.748;8.960;2023-03-12T06:32:45;7.10;;;5.60;;
3149;SDS011;32503;47.748;8.960;2023-03-12T06:35:12;6.63;;;5.10;;
3149;SDS011;32503;47.748;8.960;2023-03-12T06:37:40;8.30;;;5.80;;
3149;SDS011;32503;47.748;8.960;2023-03-12T06:40:07;7.10;;;6.13;;
3149;SDS011;32503;47.748;8.960;2023-03-12T06:42:38;7.73;;;5.90;;
3149;SDS011;32503;47.748;8.960;2023-03-12T06:45:05;5.90;;;5.30;;
3149;SDS011;32503;47.748;8.960;2023-03-12T06:47:34;7.23;;;5.77;;
3149;SDS011;32503;47.748;8.960;2023-03-12T06:50:01;18.50;;;6.40;;
3149;SDS011;32503;47.748;8.960;2023-03-12T06:52:28;9.13;;;6.03;;
3149;SDS011;32503;47.748;8.960;2023-03-12T06:54:55;6.40;;;5.57;;
3149;SDS011;32503;47.748;8.960;2023-03-12T06:57:22;5.63;;;4.93;;
3149;SDS011;32503;47.748;8.960;2023-03-12T06:59:50;5.53;;;5.03;;
3149;SDS011;32503;47.748;8.960;2023-03-12T07:02:17;7.07;;;5.37;;
3149;SDS011;32503;47.748;8.960;2023-03-12T07:04:44;7.73;;;5.07;;
3149;SDS011;32503;47.748;8.960;2023-03-12T07:07:11;8.97;;;5.53;;
3149;SDS011;32503;47.748;8.960;2023-03-12T07:09:39;6.23;;;5.27;;
3149;SDS011;32503;47.748;8.960;2023-03-12T07:12:06;7.30;;;5.83;;
3149;SDS011;32503;47.748;8.960;2023-03-12T07:14:34;8.03;;;6.60;;
3149;SDS011;32503;47.748;8.960;2023-03-12T07:17:03;9.40;;;6.40;;
3149;SDS011;32503;47.748;8.960;2023-03-12T07:19:30;7.60;;;5.70;;
3149;SDS011;32503;47.748;8.960;2023-03-12T07:21:57;10.20;;;6.60;;
3149;SDS011;32503;47.748;8.960;2023-03-12T07:24:24;7.23;;;6.23;;
3149;SDS011;32503;47.748;8.960;2023-03-12T07:26:51;9.90;;;6.57;;
3149;SDS011;32503;47.748;8.960;2023-03-12T07:29:18;6.60;;;5.90;;
3149;SDS011;32503;47.748;8.960;2023-03-12T07:31:45;15.80;;;8.00;;
3149;SDS011;32503;47.748;8.960;2023-03-12T07:34:13;11.23;;;7.30;;
3149;SDS011;32503;47.748;8.960;2023-03-12T07:36:41;12.27;;;7.13;;
3149;SDS011;32503;47.748;8.960;2023-03-12T07:39:08;16.77;;;7.50;;
3149;SDS011;32503;47.748;8.960;2023-03-12T07:41:35;11.13;;;7.47;;
3149;SDS011;32503;47.748;8.960;2023-03-12T07:44:03;11.50;;;7.60;;
3149;SDS011;32503;47.748;8.960;2023-03-12T07:46:30;12.70;;;8.43;;
3149;SDS011;32503;47.748;8.960;2023-03-12T07:48:57;11.70;;;7.23;;
3149;SDS011;32503;47.748;8.960;2023-03-12T07:51:26;13.50;;;7.17;;
3149;SDS011;32503;47.748;8.960;2023-03-12T07:53:53;11.17;;;7.87;;
3149;SDS011;32503;47.748;8.960;2023-03-12T07:56:20;10.30;;;7.00;;
3149;SDS011;32503;47.748;8.960;2023-03-12T07:58:47;10.93;;;8.57;;
3149;SDS011;32503;47.748;8.960;2023-03-12T08:01:14;11.63;;;7.00;;
3149;SDS011;32503;47.748;8.960;2023-03-12T08:03:41;7.70;;;6.80;;
3149;SDS011;32503;47.748;8.960;2023-03-12T08:06:08;8.50;;;7.27;;
3149;SDS011;32503;47.748;8.960;2023-03-12T08:08:37;13.90;;;8.43;;
3149;SDS011;32503;47.748;8.960;2023-03-12T08:11:06;15.07;;;9.57;;
3149;SDS011;32503;47.748;8.960;2023-03-12T08:13:34;14.53;;;9.90;;
3149;SDS011;32503;47.748;8.960;2023-03-12T08:16:01;12.77;;;8.80;;
3149;SDS011;32503;47.748;8.960;2023-03-12T08:18:29;16.13;;;9.33;;
3149;SDS011;32503;47.748;8.960;2023-03-12T08:20:56;8.93;;;7.33;;
3149;SDS011;32503;47.748;8.960;2023-03-12T08:23:23;10.83;;;8.03;;
3149;SDS011;32503;47.748;8.960;2023-03-12T08:25:52;11.87;;;7.90;;
3149;SDS011;32503;47.748;8.960;2023-03-12T08:28:20;9.10;;;7.20;;
3149;SDS011;32503;47.748;8.960;2023-03-12T08:30:49;13.20;;;8.73;;
3149;SDS011;32503;47.748;8.960;2023-03-12T08:33:19;10.77;;;7.70;;
3149;SDS011;32503;47.748;8.960;2023-03-12T08:35:47;9.10;;;7.33;;
3149;SDS011;32503;47.748;8.960;2023-03-12T08:38:15;11.67;;;6.70;;
3149;SDS011;32503;47.748;8.960;2023-03-12T08:40:42;8.03;;;6.57;;
3149;SDS011;32503;47.748;8.960;2023-03-12T08:43:11;7.40;;;6.23;;
3149;SDS011;32503;47.748;8.960;2023-03-12T08:45:38;10.33;;;7.20;;
3149;SDS011;32503;47.748;8.960;2023-03-12T08:48:05;7.50;;;6.80;;
3149;SDS011;32503;47.748;8.960;2023-03-12T08:50:37;9.87;;;7.30;;
3149;SDS011;32503;47.748;8.960;2023-03-12T08:53:05;7.90;;;6.80;;
3149;SDS011;32503;47.748;8.960;2023-03-12T08:55:32;7.37;;;6.47;;
3149;SDS011;32503;47.748;8.960;2023-03-12T08:57:59;6.67;;;6.07;;
3149;SDS011;32503;47.748;8.960;2023-03-12T09:00:27;7.57;;;6.80;;
3149;SDS011;32503;47.748;8.960;2023-03-12T09:02:54;7.73;;;6.83;;
3149;SDS011;32503;47.748;8.960;2023-03-12T09:05:22;8.40;;;6.40;;
3149;SDS011;32503;47.748;8.960;2023-03-12T09:07:49;7.00;;;6.30;;
3149;SDS011;32503;47.748;8.960;2023-03-12T09:10:17;7.57;;;6.50;;
3149;SDS011;32503;47.748;8.960;2023-03-12T09:12:44;6.13;;;5.53;;
3149;SDS011;32503;47.748;8.960;2023-03-12T09:15:11;5.60;;;5.03;;
3149;SDS011;32503;47.748;8.960;2023-03-12T09:17:39;6.80;;;5.33;;
3149;SDS011;32503;47.748;8.960;2023-03-12T09:20:07;7.47;;;6.77;;
3149;SDS011;32503;47.748;8.960;2023-03-12T09:22:38;5.20;;;4.80;;
3149;SDS011;32503;47.748;8.960;2023-03-12T09:25:06;7.17;;;5.67;;
3149;SDS011;32503;47.748;8.960;2023-03-12T09:27:36;8.57;;;5.43;;
3149;SDS011;32503;47.748;8.960;2023-03-12T09:30:04;5.30;;;4.90;;
3149;SDS011;32503;47.748;8.960;2023-03-12T09:32:34;5.93;;;4.83;;
3149;SDS011;32503;47.748;8.960;2023-03-12T09:35:03;5.00;;;4.67;;
3149;SDS011;32503;47.748;8.960;2023-03-12T09:37:31;5.07;;;4.57;;
3149;SDS011;32503;47.748;8.960;2023-03-12T09:39:58;4.90;;;4.60;;
3149;SDS011;32503;47.748;8.960;2023-03-12T09:42:29;6.10;;;5.60;;
3149;SDS011;32503;47.748;8.960;2023-03-12T09:45:03;4.90;;;4.60;;
3149;SDS011;32503;47.748;8.960;2023-03-12T09:47:33;5.40;;;4.97;;
3149;SDS011;32503;47.748;8.960;2023-03-12T09:50:15;8.03;;;5.43;;
3149;SDS011;32503;47.748;8.960;2023-03-12T09:52:49;13.13;;;8.40;;
3149;SDS011;32503;47.748;8.960;2023-03-12T09:55:24;7.13;;;6.50;;
3149;SDS011;32503;47.748;8.960;2023-03-12T09:57:53;6.00;;;5.53;;
3149;SDS011;32503;47.748;8.960;2023-03-12T10:00:23;6.60;;;4.63;;
3149;SDS011;32503;47.748;8.960;2023-03-12T10:06:19;4.70;;;4.40;;
3149;SDS011;32503;47.748;8.960;2023-03-12T10:08:53;5.57;;;5.17;;
3149;SDS011;32503;47.748;8.960;2023-03-12T10:11:37;5.20;;;4.80;;
3149;SDS011;32503;47.748;8.960;2023-03-12T10:14:16;5.90;;;5.30;;
3149;SDS011;32503;47.748;8.960;2023-03-12T10:16:59;5.23;;;4.83;;
3149;SDS011;32503;47.748;8.960;2023-03-12T10:19:50;5.60;;;5.20;;
3149;SDS011;32503;47.748;8.960;2023-03-12T10:22:44;4.97;;;4.67;;
3149;SDS011;32503;47.748;8.960;2023-03-12T10:25:21;3.70;;;3.40;;
3149;SDS011;32503;47.748;8.960;2023-03-12T10:27:56;4.33;;;3.27;;
3149;SDS011;32503;47.748;8.960;2023-03-12T10:30:30;3.30;;;3.10;;
3149;SDS011;32503;47.748;8.960;2023-03-12T10:33:02;3.43;;;3.23;;
3149;SDS011;32503;47.748;8.960;2023-03-12T10:35:35;4.00;;;3.73;;
3149;SDS011;32503;47.748;8.960;2023-03-12T10:38:08;4.23;;;3.93;;
3149;SDS011;32503;47.748;8.960;2023-03-12T10:40:41;3.90;;;3.60;;
3149;SDS011;32503;47.748;8.960;2023-03-12T10:43:08;3.63;;;3.20;;
3149;SDS011;32503;47.748;8.960;2023-03-12T10:45:37;4.57;;;3.70;;
3149;SDS011;32503;47.748;8.960;2023-03-12T10:48:10;5.07;;;4.23;;
3149;SDS011;32503;47.748;8.960;2023-03-12T10:50:58;4.90;;;4.60;;
3149;SDS011;32503;47.748;8.960;2023-03-12T10:53:31;3.30;;;3.10;;
3149;SDS011;32503;47.748;8.960;2023-03-12T10:56:00;4.40;;;4.10;;
3149;SDS011;32503;47.748;8.960;2023-03-12T10:58:35;4.10;;;3.83;;
3149;SDS011;32503;47.748;8.960;2023-03-12T11:01:05;4.10;;;3.90;;
3149;SDS011;32503;47.748;8.960;2023-03-12T11:03:43;4.13;;;3.73;;
3149;SDS011;32503;47.748;8.960;2023-03-12T11:06:18;3.73;;;3.50;;
3149;SDS011;32503;47.748;8.960;2023-03-12T11:09:02;3.80;;;3.60;;
3149;SDS011;32503;47.748;8.960;2023-03-12T11:11:32;3.67;;;3.40;;
3149;SDS011;32503;47.748;8.960;2023-03-12T11:14:04;4.43;;;4.10;;
3149;SDS011;32503;47.748;8.960;2023-03-12T11:16:40;4.20;;;3.90;;
3149;SDS011;32503;47.748;8.960;2023-03-12T11:19:09;4.23;;;4.00;;
3149;SDS011;32503;47.748;8.960;2023-03-12T11:21:39;3.60;;;3.40;;
3149;SDS011;32503;47.748;8.960;2023-03-12T11:24:22;6.60;;;5.40;;
3149;SDS011;32503;47.748;8.960;2023-03-12T11:26:50;5.00;;;4.57;;
3149;SDS011;32503;47.748;8.960;2023-03-12T11:29:25;4.80;;;4.33;;
3149;SDS011;32503;47.748;8.960;2023-03-12T11:31:57;4.20;;;4.00;;
3149;SDS011;32503;47.748;8.960;2023-03-12T11:34:32;3.80;;;3.60;;
3149;SDS011;32503;47.748;8.960;2023-03-12T11:37:06;3.77;;;3.57;;
3149;SDS011;32503;47.748;8.960;2023-03-12T11:39:47;4.97;;;4.60;;
3149;SDS011;32503;47.748;8.960;2023-03-12T11:42:30;4.17;;;3.80;;
3149;SDS011;32503;47.748;8.960;2023-03-12T11:45:14;3.70;;;3.50;;
3149;SDS011;32503;47.748;8.960;2023-03-12T11:50:42;4.77;;;4.47;;
3149;SDS011;32503;47.748;8.960;2023-03-12T11:53:28;3.50;;;3.30;;
3149;SDS011;32503;47.748;8.960;2023-03-12T11:56:17;4.20;;;3.53;;
3149;SDS011;32503;47.748;8.960;2023-03-12T11:58:59;4.60;;;4.23;;
3149;SDS011;32503;47.748;8.960;2023-03-12T12:01:42;4.67;;;4.37;;
3149;SDS011;32503;47.748;8.960;2023-03-12T12:04:34;4.03;;;3.83;;
3149;SDS011;32503;47.748;8.960;2023-03-12T12:07:23;3.20;;;3.00;;
3149;SDS011;32503;47.748;8.960;2023-03-12T12:10:09;3.17;;;2.97;;
3149;SDS011;32503;47.748;8.960;2023-03-12T12:12:53;3.30;;;3.10;;
3149;SDS011;32503;47.748;8.960;2023-03-12T12:15:32;3.70;;;3.50;;
3149;SDS011;32503;47.748;8.960;2023-03-12T12:18:22;3.57;;;3.33;;
3149;SDS011;32503;47.748;8.960;2023-03-12T12:21:12;3.07;;;2.97;;
3149;SDS011;32503;47.748;8.960;2023-03-12T12:23:57;2.83;;;2.63;;
3149;SDS011;32503;47.748;8.960;2023-03-12T12:26:36;3.50;;;2.97;;
3149;SDS011;32503;47.748;8.960;2023-03-12T12:29:25;2.87;;;2.77;;
3149;SDS011;32503;47.748;8.960;2023-03-12T12:32:08;2.13;;;2.03;;
3149;SDS011;32503;47.748;8.960;2023-03-12T12:34:54;2.70;;;2.20;;
3149;SDS011;32503;47.748;8.960;2023-03-12T12:37:45;2.40;;;2.30;;
3149;SDS011;32503;47.748;8.960;2023-03-12T12:40:22;2.30;;;2.20;;
3149;SDS011;32503;47.748;8.960;2023-03-12T12:43:05;2.07;;;1.97;;
3149;SDS011;32503;47.748;8.960;2023-03-12T12:45:49;3.23;;;1.93;;
3149;SDS011;32503;47.748;8.960;2023-03-12T12:48:19;1.77;;;1.67;;
3149;SDS011;32503;47.748;8.960;2023-03-12T12:50:50;3.17;;;2.57;;
3149;SDS011;32503;47.748;8.960;2023-03-12T12:53:20;2.57;;;2.37;;
3149;SDS011;32503;47.748;8.960;2023-03-12T12:55:53;1.70;;;1.60;;
3149;SDS011;32503;47.748;8.960;2023-03-12T12:58:43;2.20;;;1.30;;
3149;SDS011;32503;47.748;8.960;2023-03-12T13:01:30;2.67;;;2.47;;
3149;SDS011;32503;47.748;8.960;2023-03-12T13:04:03;1.23;;;1.13;;
3149;SDS011;32503;47.748;8.960;2023-03-12T13:06:55;1.17;;;1.00;;
3149;SDS011;32503;47.748;8.960;2023-03-12T13:09:36;2.83;;;1.33;;
3149;SDS011;32503;47.748;8.960;2023-03-12T13:12:15;2.53;;;1.07;;
3149;SDS011;32503;47.748;8.960;2023-03-12T13:14:47;1.10;;;1.00;;
3149;SDS011;32503;47.748;8.960;2023-03-12T13:17:26;0.90;;;0.80;;
3149;SDS011;32503;47.748;8.960;2023-03-12T13:19:57;1.50;;;0.87;;
3149;SDS011;32503;47.748;8.960;2023-03-12T13:28:35;1.50;;;1.10;;
3149;SDS011;32503;47.748;8.960;2023-03-12T13:40:32;1.00;;;0.80;;
3149;SDS011;32503;47.748;8.960;2023-03-12T13:46:26;2.10;;;1.10;;
3149;SDS011;32503;47.748;8.960;2023-03-12T13:49:04;4.73;;;1.40;;
3149;SDS011;32503;47.748;8.960;2023-03-12T13:54:41;2.20;;;1.43;;
3149;SDS011;32503;47.748;8.960;2023-03-12T13:57:12;2.03;;;1.07;;
3149;SDS011;32503;47.748;8.960;2023-03-12T13:59:53;2.30;;;2.10;;
3149;SDS011;32503;47.748;8.960;2023-03-12T14:02:24;2.67;;;1.30;;
3149;SDS011;32503;47.748;8.960;2023-03-12T14:04:53;1.73;;;0.80;;
3149;SDS011;32503;47.748;8.960;2023-03-12T14:07:41;0.80;;;0.70;;
3149;SDS011;32503;47.748;8.960;2023-03-12T14:10:38;0.90;;;0.70;;
3149;SDS011;32503;47.748;8.960;2023-03-12T14:13:26;2.20;;;0.93;;
3149;SDS011;32503;47.748;8.960;2023-03-12T14:16:17;1.17;;;1.07;;
3149;SDS011;32503;47.748;8.960;2023-03-12T14:18:51;2.07;;;0.90;;
3149;SDS011;32503;47.748;8.960;2023-03-12T14:21:19;2.47;;;0.80;;
3149;SDS011;32503;47.748;8.960;2023-03-12T14:23:51;1.47;;;1.10;;
3149;SDS011;32503;47.748;8.960;2023-03-12T14:26:23;1.10;;;0.60;;
3149;SDS011;32503;47.748;8.960;2023-03-12T14:28:54;2.77;;;0.70;;
3149;SDS011;32503;47.748;8.960;2023-03-12T14:31:25;0.93;;;0.83;;
3149;SDS011;32503;47.748;8.960;2023-03-12T14:33:56;2.67;;;0.87;;
3149;SDS011;32503;47.748;8.960;2023-03-12T14:36:31;1.40;;;0.70;;
3149;SDS011;32503;47.748;8.960;2023-03-12T14:39:09;1.63;;;0.80;;
3149;SDS011;32503;47.748;8.960;2023-03-12T14:41:47;1.77;;;0.60;;
3149;SDS011;32503;47.748;8.960;2023-03-12T14:44:22;0.80;;;0.80;;
3149;SDS011;32503;47.748;8.960;2023-03-12T14:46:57;0.80;;;0.73;;
3149;SDS011;32503;47.748;8.960;2023-03-12T14:49:26;1.63;;;1.53;;
3149;SDS011;32503;47.748;8.960;2023-03-12T14:51:55;0.80;;;0.70;;
3149;SDS011;32503;47.748;8.960;2023-03-12T14:54:24;4.77;;;1.10;;
3149;SDS011;32503;47.748;8.960;2023-03-12T14:56:53;2.50;;;0.80;;
3149;SDS011;32503;47.748;8.960;2023-03-12T14:59:21;0.70;;;0.50;;
3149;SDS011;32503;47.748;8.960;2023-03-12T15:01:55;0.83;;;0.60;;
3149;SDS011;32503;47.748;8.960;2023-03-12T15:04:26;0.90;;;0.63;;
3149;SDS011;32503;47.748;8.960;2023-03-12T15:06:55;1.47;;;0.80;;
3149;SDS011;32503;47.748;8.960;2023-03-12T15:09:30;0.83;;;0.67;;
3149;SDS011;32503;47.748;8.960;2023-03-12T15:12:01;1.47;;;0.70;;
3149;SDS011;32503;47.748;8.960;2023-03-12T15:14:31;0.70;;;0.60;;
3149;SDS011;32503;47.748;8.960;2023-03-12T15:17:03;3.17;;;0.90;;
3149;SDS011;32503;47.748;8.960;2023-03-12T15:19:32;3.30;;;0.70;;
3149;SDS011;32503;47.748;8.960;2023-03-12T15:22:03;1.20;;;0.73;;
3149;SDS011;32503;47.748;8.960;2023-03-12T15:24:37;2.20;;;0.70;;
3149;SDS011;32503;47.748;8.960;2023-03-12T15:27:28;1.47;;;0.90;;
3149;SDS011;32503;47.748;8.960;2023-03-12T15:29:58;4.13;;;1.03;;
3149;SDS011;32503;47.748;8.960;2023-03-12T15:32:27;1.00;;;0.70;;
3149;SDS011;32503;47.748;8.960;2023-03-12T15:34:55;1.00;;;0.90;;
3149;SDS011;32503;47.748;8.960;2023-03-12T15:37:23;1.07;;;0.83;;
3149;SDS011;32503;47.748;8.960;2023-03-12T15:39:58;1.03;;;0.90;;
3149;SDS011;32503;47.748;8.960;2023-03-12T15:42:33;1.57;;;1.10;;
3149;SDS011;32503;47.748;8.960;2023-03-12T15:45:13;1.80;;;0.80;;
3149;SDS011;32503;47.748;8.960;2023-03-12T15:47:44;4.10;;;1.00;;
3149;SDS011;32503;47.748;8.960;2023-03-12T15:50:16;1.43;;;0.97;;
3149;SDS011;32503;47.748;8.960;2023-03-12T15:52:59;2.13;;;1.10;;
3149;SDS011;32503;47.748;8.960;2023-03-12T15:55:31;1.60;;;1.50;;